Friday Harbor, WA

6:39 AM PDT on September 18, 2014 (GMT -0700)
San Juan Wx | Change Station
CLOSE
Current Station
Personal Weather Station
Location: Friday Harbor, WA
Elevation: 223 ft
Nearby Weather Stations
4.0 Earthquake: Seabeck, Washington (1 day ago)  

Elev 223 ft 48.51 °N, 123.04 °W | Updated 7 minutes ago

Fog
Fog
56.1 °F
Feels Like 56.1 °F
N
1.7
Wind Variable Wind from SE

Today
High -- | Low -- °F
--% Chance of Precip.
Yesterday
High -- | Low -- °F
Precip. -- in
6:53 AM 7:18 PM
Waning Crescent, 27% visible
Pressure 29.74 in
Visibility 0.5 miles
Clouds Mostly Cloudy 400 ft
Mostly Cloudy 800 ft
Overcast 2500 ft
Dew Point 56 °F
Humidity 99%
Rainfall 0.23 in
Snow Depth 0 in , 0 in , 1 in
UV 0 out of 12
Pollen .40 out of 12
Air Quality Not available.
Flu Activity Not available.
SPECI KFHR 181323Z AUTO 00000KT 1/2SM FG BKN004 BKN008 OVC025 13/13 A2974 RMK AO2 T01330128

More Conditions Fewer Conditions

Pressure 29.74 in
Visibility 0.5 miles
Clouds Mostly Cloudy 400 ft
Mostly Cloudy 800 ft
Overcast 2500 ft
Dew Point 56 °F
Humidity 99%
Rainfall 0.23 in
Snow Depth 0 in , 0 in , 1 in
UV 0 out of 12
Pollen .40 out of 12
Air Quality Not available.
Flu Activity Not available.
SPECI KFHR 181323Z AUTO 00000KT 1/2SM FG BKN004 BKN008 OVC025 13/13 A2974 RMK AO2 T01330128

More Conditions Fewer Conditions

10-Day Weather Forecast

Almanac

Astronomy

Sep. 18, 2014 Rise Set
Actual Time 6:53 AM PDT 7:18 PM PDT
Civil Twilight 6:21 AM PDT 7:49 PM PDT
Nautical Twilight 5:44 AM PDT 8:26 PM PDT
Astronomical Twilight 5:05 AM PDT 9:05 PM PDT
Moon 1:31 AM PDT 4:30 PM PDT
Length of Visible Light 13h 27m
Length of Day
12h 24m
Tomorrow will be 3m 30s shorter.
Waning Crescent, 27% of the Moon is Illuminated
Today
Waning Crescent
Sep 24
New
Oct 1
First Quarter
Oct 8
Full
Oct 15
Last Quarter

Today's Extremes

State Highs State Lows

Community

WunderPhotos

Upload Photos

1,754,347 photos uploaded!

Nearby

Snow Depth

Station Depth Elevation
Elbow Lake 0 in 3200 ft
Alpine Meadows 0 in 3500 ft
Spruce Springs 1 in 5700 ft
Lone Pine 0 in 3800 ft
Swift Creek 0 in 3770 ft

Earthquake Activity

City Distance Mag. Time & Date
Seabeck, Washington 67 miles 4.0 3:06 AM PDT
2014-09-17
Minimum magnitude displayed is 2.5.

Coastal Water Temperatures

Place Temperature
Port Townsend, WA 53.1 °F
Friday Harbor, WA 53.1 °F
Port Angeles, WA 51.1 °F

Nearby Weather Stations